Time;durP1;ratioP1;P1;durP2;ratioP2;P2;SDS_P1;SDS_P2;PMS_P1;PMS_P2;Temp;Humidity;BMP_temperature;BMP_pressure;BME280_temperature;BME280_humidity;BME280_pressure;Samples;Min_cycle;Max_cycle;Signal;HPM_P1;HPM_P2
2021/09/30 00:01:36;;;;;;;;;;;;;;;15.88;51.73;101716.44;5013229;28;97323;-83
2021/09/30 00:04:04;;;;;;;;;;;;;;;15.87;51.65;101728.88;5012792;28;97043;-84
2021/09/30 00:06:31;;;;;;;;;;;;;;;15.84;51.70;101728.13;5012186;28;100851;-84
2021/09/30 00:08:58;;;;;;;;;;;;;;;15.77;51.83;101731.97;5004513;28;96791;-84
2021/09/30 00:11:28;;;;;;;;;;;;;;;15.62;51.81;101729.97;4999371;28;96803;-83
2021/09/30 00:13:58;;;;;;;;;;;;;;;15.67;51.99;101735.97;4996558;28;97240;-84
2021/09/30 00:33:18;;;;;;;;;;;;;;;15.59;51.97;101743.41;5006275;28;96348;-85
2021/09/30 00:35:55;;;;;;;;;;;;;;;15.22;52.43;101743.97;5018567;28;96190;-84
2021/09/30 00:41:16;;;;;;;;;;;;;;;15.27;52.30;101742.84;4998610;28;96953;-85
2021/09/30 00:46:29;;;;;;;;;;;;;;;15.31;52.37;101748.91;5000888;28;96855;-85
2021/09/30 00:49:06;;;;;;;;;;;;;;;15.37;52.23;101748.66;4984321;28;100967;-85
2021/09/30 00:51:42;;;;;;;;;;;;;;;15.44;52.00;101751.03;5000399;28;98458;-84
2021/09/30 00:54:25;;;;;;;;;;;;;;;15.50;51.67;101761.44;5000536;28;96707;-84
2021/09/30 02:20:37;;;;;;;;;;;;;;;14.80;52.87;101805.00;4993546;28;97094;-85
2021/09/30 02:59:06;;;;;;;;;;;;;;;14.64;53.27;101829.47;5016997;28;97153;-84
2021/09/30 03:01:34;;;;;;;;;;;;;;;14.34;54.54;101822.53;5015910;28;98909;-84
2021/09/30 03:04:01;;;;;;;;;;;;;;;14.65;53.61;101828.56;5019569;28;96478;-84
2021/09/30 03:06:29;;;;;;;;;;;;;;;14.46;53.97;101822.13;5017865;28;96572;-84
2021/09/30 03:08:58;;;;;;;;;;;;;;;14.66;53.58;101826.75;5019143;28;96077;-84
2021/09/30 03:11:25;;;;;;;;;;;;;;;14.73;53.51;101831.81;5018344;28;100077;-82
2021/09/30 03:13:55;;;;;;;;;;;;;;;14.83;53.07;101826.19;5015307;28;98260;-84
2021/09/30 03:16:26;;;;;;;;;;;;;;;14.91;53.01;101826.75;5011598;28;96994;-84
2021/09/30 03:18:56;;;;;;;;;;;;;;;14.88;52.87;101829.53;5020029;28;97471;-84
2021/09/30 03:24:09;;;;;;;;;;;;;;;14.88;52.92;101832.19;5017762;28;96096;-85
2021/09/30 03:26:36;;;;;;;;;;;;;;;14.85;53.15;101830.50;5018592;28;95924;-85
2021/09/30 03:29:03;;;;;;;;;;;;;;;14.33;53.82;101829.63;5019891;28;96035;-84
2021/09/30 03:31:30;;;;;;;;;;;;;;;14.64;53.65;101825.94;5018764;28;97811;-86
2021/09/30 03:33:57;;;;;;;;;;;;;;;14.58;54.00;101827.03;5011967;28;96776;-84
2021/09/30 03:36:23;;;;;;;;;;;;;;;14.67;53.36;101828.50;5014500;28;96590;-85
2021/09/30 03:38:49;;;;;;;;;;;;;;;14.63;53.48;101832.22;5003637;28;96766;-85
2021/09/30 03:41:18;;;;;;;;;;;;;;;14.65;53.60;101833.88;5004044;28;98300;-86
2021/09/30 03:43:44;;;;;;;;;;;;;;;14.62;53.45;101834.00;5013828;28;97840;-85
2021/09/30 03:46:12;;;;;;;;;;;;;;;14.61;53.62;101831.38;5023123;28;96493;-83
2021/09/30 03:48:38;;;;;;;;;;;;;;;14.72;53.18;101838.06;5017106;28;96063;-84
2021/09/30 03:51:11;;;;;;;;;;;;;;;14.48;53.97;101838.91;5002586;28;99146;-85
2021/09/30 03:53:55;;;;;;;;;;;;;;;14.29;54.52;101841.31;5021946;28;98490;-84
2021/09/30 03:59:08;;;;;;;;;;;;;;;14.50;53.93;101836.22;4996643;28;96567;-85
2021/09/30 04:01:35;;;;;;;;;;;;;;;14.58;53.46;101837.66;4989140;28;100423;-85
2021/09/30 04:04:02;;;;;;;;;;;;;;;14.60;53.71;101833.16;5003541;28;100596;-85
2021/09/30 04:06:29;;;;;;;;;;;;;;;14.63;53.38;101843.72;5001511;28;96602;-85
2021/09/30 04:08:57;;;;;;;;;;;;;;;14.43;54.01;101838.22;5002286;28;97032;-85
2021/09/30 04:11:26;;;;;;;;;;;;;;;14.63;53.47;101846.38;5000250;28;100030;-85
2021/09/30 04:13:52;;;;;;;;;;;;;;;14.53;53.63;101839.63;5001590;28;100593;-85
2021/09/30 04:16:19;;;;;;;;;;;;;;;14.66;53.61;101845.38;5001465;28;96826;-84
2021/09/30 04:18:47;;;;;;;;;;;;;;;14.46;53.75;101847.84;4984014;28;96966;-85
2021/09/30 04:21:13;;;;;;;;;;;;;;;14.68;53.44;101849.75;4991672;28;99383;-84
2021/09/30 04:23:40;;;;;;;;;;;;;;;14.29;54.05;101853.72;4999729;28;98028;-84
2021/09/30 04:26:07;;;;;;;;;;;;;;;14.50;53.72;101854.84;4998678;28;97075;-85
2021/09/30 04:28:38;;;;;;;;;;;;;;;14.63;53.41;101859.69;5003027;28;96801;-83
2021/09/30 04:31:04;;;;;;;;;;;;;;;14.65;53.64;101865.78;4999442;28;98139;-84
2021/09/30 04:33:31;;;;;;;;;;;;;;;14.67;53.39;101863.97;5000186;28;100915;-84
2021/09/30 04:35:57;;;;;;;;;;;;;;;14.63;53.58;101870.31;4998922;28;96996;-85
2021/09/30 04:38:24;;;;;;;;;;;;;;;14.53;53.53;101876.84;5001129;28;96900;-85
2021/09/30 04:40:50;;;;;;;;;;;;;;;14.64;53.57;101874.69;5000634;28;98328;-84
2021/09/30 04:43:17;;;;;;;;;;;;;;;14.43;54.14;101875.44;5000417;28;98114;-84
2021/09/30 04:45:49;;;;;;;;;;;;;;;14.73;53.33;101878.84;5000632;28;96577;-84
2021/09/30 04:48:15;;;;;;;;;;;;;;;14.81;53.23;101881.22;4999024;28;97538;-84
2021/09/30 04:50:43;;;;;;;;;;;;;;;14.66;53.38;101883.50;5019271;28;100168;-84
2021/09/30 04:53:10;;;;;;;;;;;;;;;14.72;53.20;101885.94;5006325;28;99894;-84
2021/09/30 04:55:36;;;;;;;;;;;;;;;14.86;53.05;101884.59;5001715;28;97172;-84
2021/09/30 04:58:03;;;;;;;;;;;;;;;14.40;54.49;101893.28;4997656;28;96907;-85
2021/09/30 05:00:31;;;;;;;;;;;;;;;14.77;53.45;101891.97;5000276;28;98159;-83
2021/09/30 05:02:59;;;;;;;;;;;;;;;14.80;53.22;101900.78;5000142;28;98737;-84
2021/09/30 05:05:25;;;;;;;;;;;;;;;14.97;52.95;101903.69;5000485;28;96999;-85
2021/09/30 05:07:52;;;;;;;;;;;;;;;15.01;52.37;101900.91;4999837;28;96890;-86
2021/09/30 05:10:20;;;;;;;;;;;;;;;14.81;52.89;101907.84;5000476;28;98410;-84
2021/09/30 05:12:49;;;;;;;;;;;;;;;15.21;52.35;101912.63;5000586;28;97772;-85
2021/09/30 05:15:18;;;;;;;;;;;;;;;15.17;51.98;101906.53;5001690;28;96755;-84
2021/09/30 05:17:45;;;;;;;;;;;;;;;15.16;51.99;101916.31;5001815;28;96747;-84
2021/09/30 05:20:14;;;;;;;;;;;;;;;15.19;52.12;101919.78;5001103;28;99141;-84
2021/09/30 05:22:41;;;;;;;;;;;;;;;15.42;51.72;101919.84;4998440;28;97621;-82
2021/09/30 05:25:09;;;;;;;;;;;;;;;15.49;51.34;101908.88;5000691;28;97151;-84
2021/09/30 05:27:35;;;;;;;;;;;;;;;15.59;50.94;101925.44;5002427;28;96798;-84
2021/09/30 05:30:02;;;;;;;;;;;;;;;15.44;51.11;101923.28;4999666;28;97490;-85
2021/09/30 05:32:28;;;;;;;;;;;;;;;15.63;50.91;101920.84;4997965;28;101570;-88
2021/09/30 05:34:56;;;;;;;;;;;;;;;15.60;50.77;101920.97;5015324;28;96482;-90
2021/09/30 05:37:28;;;;;;;;;;;;;;;15.51;51.10;101928.34;5013581;28;95968;-89
2021/09/30 05:40:03;;;;;;;;;;;;;;;15.37;50.90;101924.44;5007395;28;98639;-88
2021/09/30 05:42:30;;;;;;;;;;;;;;;15.39;51.08;101934.13;5004694;28;99986;-89
2021/09/30 05:44:58;;;;;;;;;;;;;;;15.66;50.35;101931.41;5004950;28;96682;-88
2021/09/30 05:47:29;;;;;;;;;;;;;;;15.45;50.69;101938.34;5004882;28;96984;-87
2021/09/30 05:49:56;;;;;;;;;;;;;;;15.50;50.53;101933.72;5001052;28;101397;-85
2021/09/30 05:52:22;;;;;;;;;;;;;;;15.90;49.96;101941.09;4996349;28;100603;-88
2021/09/30 05:54:52;;;;;;;;;;;;;;;15.91;50.14;101941.06;5001393;28;96746;-86
2021/09/30 05:57:19;;;;;;;;;;;;;;;15.52;50.28;101950.53;4999159;28;96948;-85
2021/09/30 05:59:46;;;;;;;;;;;;;;;15.71;50.54;101945.41;5004378;28;99527;-82
2021/09/30 06:03:43;;;;;;;;;;;;;;;15.74;49.98;101950.63;5012045;28;99254;-84
2021/09/30 06:10:44;;;;;;;;;;;;;;;15.81;49.92;101952.13;4993978;28;97235;-84
2021/09/30 06:13:14;;;;;;;;;;;;;;;15.81;49.87;101952.13;5020569;28;99169;-88
2021/09/30 06:15:43;;;;;;;;;;;;;;;15.66;49.80;101958.03;5008958;28;96775;-86
2021/09/30 06:18:09;;;;;;;;;;;;;;;15.90;49.65;101962.44;4987795;28;96828;-84
2021/09/30 06:20:37;;;;;;;;;;;;;;;15.74;49.69;101967.50;5008600;28;100875;-85
2021/09/30 06:23:04;;;;;;;;;;;;;;;15.77;49.85;101964.69;5001057;28;100789;-84
2021/09/30 06:25:31;;;;;;;;;;;;;;;16.06;49.46;101971.59;5001802;28;96716;-85
2021/09/30 06:28:01;;;;;;;;;;;;;;;15.97;49.66;101971.06;5005164;28;96938;-85
2021/09/30 06:30:30;;;;;;;;;;;;;;;15.93;49.15;101971.19;5005713;28;99457;-89
2021/09/30 06:32:57;;;;;;;;;;;;;;;16.04;49.29;101969.91;5004651;28;99161;-85
2021/09/30 06:35:23;;;;;;;;;;;;;;;16.02;48.93;101988.63;5016160;28;96699;-85
2021/09/30 06:37:51;;;;;;;;;;;;;;;16.25;48.96;101977.94;5011501;28;97023;-84
2021/09/30 06:42:59;;;;;;;;;;;;;;;16.02;48.97;101980.63;5019755;28;96759;-85
2021/09/30 06:45:26;;;;;;;;;;;;;;;16.13;48.85;101994.41;5037839;28;96076;-83
2021/09/30 06:47:52;;;;;;;;;;;;;;;16.31;48.56;101984.81;5004678;28;96444;-81
2021/09/30 06:50:19;;;;;;;;;;;;;;;16.23;48.70;101981.59;5016684;28;98136;-82
2021/09/30 06:52:46;;;;;;;;;;;;;;;16.33;48.32;101983.84;5020290;28;97738;-83
2021/09/30 06:55:13;;;;;;;;;;;;;;;16.21;48.85;101986.97;5015651;28;96286;-84
2021/09/30 06:57:40;;;;;;;;;;;;;;;16.03;48.91;101978.81;5004394;28;96792;-84
2021/09/30 07:00:09;;;;;;;;;;;;;;;16.19;48.58;101994.19;4999656;28;102133;-83
2021/09/30 07:02:37;;;;;;;;;;;;;;;16.07;48.98;101993.78;5007181;28;99279;-83
2021/09/30 07:05:04;;;;;;;;;;;;;;;16.07;49.16;101992.00;5005679;28;96693;-84
2021/09/30 07:07:34;;;;;;;;;;;;;;;15.87;50.28;101999.88;5001353;28;97421;-84
2021/09/30 07:10:12;;;;;;;;;;;;;;;16.17;49.14;102009.38;5002875;28;96908;-84
2021/09/30 07:15:23;;;;;;;;;;;;;;;16.20;49.03;102013.72;5018791;28;96604;-92
2021/09/30 07:17:49;;;;;;;;;;;;;;;16.22;48.73;102014.50;5019484;28;96434;-94
2021/09/30 07:20:16;;;;;;;;;;;;;;;16.21;48.59;102026.13;5035412;28;98947;-84
2021/09/30 07:22:42;;;;;;;;;;;;;;;16.10;48.66;102031.84;5005919;28;98914;-84
2021/09/30 07:25:10;;;;;;;;;;;;;;;16.17;48.78;102030.69;5008131;28;96665;-85
2021/09/30 07:27:39;;;;;;;;;;;;;;;16.04;49.10;102034.75;5010463;28;96835;-84
2021/09/30 07:30:06;;;;;;;;;;;;;;;16.12;49.03;102030.00;5012089;28;101034;-83
2021/09/30 07:32:36;;;;;;;;;;;;;;;15.93;49.34;102027.19;5008354;28;97563;-84
2021/09/30 07:35:04;;;;;;;;;;;;;;;16.31;48.52;102028.38;5007661;28;96716;-84
2021/09/30 07:37:32;;;;;;;;;;;;;;;15.76;49.21;102024.25;5010335;28;97032;-84
2021/09/30 07:39:59;;;;;;;;;;;;;;;16.41;48.50;102033.34;5003861;28;99370;-84
2021/09/30 07:42:27;;;;;;;;;;;;;;;16.58;48.14;102030.88;5008025;28;101429;-84
2021/09/30 07:44:54;;;;;;;;;;;;;;;16.55;47.87;102026.50;5012176;28;96829;-85
2021/09/30 07:47:24;;;;;;;;;;;;;;;16.67;47.52;102030.56;5010756;28;96635;-83
2021/09/30 07:49:53;;;;;;;;;;;;;;;16.66;47.92;102042.16;4998905;28;99794;-85
2021/09/30 07:52:20;;;;;;;;;;;;;;;16.65;47.92;102041.28;5008876;28;97900;-84
2021/09/30 07:54:49;;;;;;;;;;;;;;;16.88;47.41;102034.13;5001736;28;97005;-84
2021/09/30 07:57:16;;;;;;;;;;;;;;;17.11;46.70;102042.94;4995607;28;96733;-84
2021/09/30 07:59:43;;;;;;;;;;;;;;;17.14;46.59;102047.25;5009493;28;97160;-86
2021/09/30 08:02:10;;;;;;;;;;;;;;;17.15;46.58;102038.31;5002817;28;97789;-84
2021/09/30 08:04:38;;;;;;;;;;;;;;;16.91;47.01;102042.88;5005658;28;96879;-83
2021/09/30 08:07:20;;;;;;;;;;;;;;;17.16;46.59;102048.06;5004701;28;97105;-83
2021/09/30 08:09:57;;;;;;;;;;;;;;;17.13;46.52;102051.72;5023201;28;97790;-84
2021/09/30 08:12:25;;;;;;;;;;;;;;;17.41;46.03;102055.88;5018781;28;99846;-83
2021/09/30 08:14:52;;;;;;;;;;;;;;;17.54;45.81;102063.31;5020124;28;95877;-83
2021/09/30 08:17:25;;;;;;;;;;;;;;;17.56;45.52;102054.34;5023065;28;96649;-86
2021/09/30 08:19:52;;;;;;;;;;;;;;;17.60;45.63;102069.31;5028827;28;99584;-81
2021/09/30 08:22:19;;;;;;;;;;;;;;;17.64;45.58;102070.97;5015742;28;96913;-81
2021/09/30 08:27:40;;;;;;;;;;;;;;;18.37;44.05;102070.31;5018520;28;96831;-82
2021/09/30 08:30:13;;;;;;;;;;;;;;;18.32;43.62;102081.19;5012355;28;99305;-83
2021/09/30 08:32:44;;;;;;;;;;;;;;;18.63;42.97;102078.88;5011413;28;97499;-84
2021/09/30 08:35:13;;;;;;;;;;;;;;;18.08;43.51;102088.56;5013871;28;96674;-82
2021/09/30 08:37:47;;;;;;;;;;;;;;;18.39;43.33;102082.66;5009994;28;96987;-83
2021/09/30 08:43:21;;;;;;;;;;;;;;;18.34;43.22;102092.72;4994667;28;99806;-83
2021/09/30 08:45:50;;;;;;;;;;;;;;;18.10;43.61;102084.00;5004977;28;97034;-83
2021/09/30 08:48:17;;;;;;;;;;;;;;;18.67;42.84;102085.78;5008828;28;97019;-83
2021/09/30 08:50:43;;;;;;;;;;;;;;;19.25;41.88;102093.63;5010197;28;98376;-83
2021/09/30 08:53:12;;;;;;;;;;;;;;;19.48;41.49;102085.34;5015759;28;98217;-83
2021/09/30 08:55:40;;;;;;;;;;;;;;;19.34;41.10;102095.88;5011621;28;96905;-83
2021/09/30 08:58:07;;;;;;;;;;;;;;;19.22;41.21;102088.44;5011214;28;96677;-83
2021/09/30 09:00:35;;;;;;;;;;;;;;;19.41;41.88;102097.28;5016133;28;98074;-83
2021/09/30 09:03:04;;;;;;;;;;;;;;;19.01;41.31;102101.09;5008727;28;99545;-84
2021/09/30 09:05:31;;;;;;;;;;;;;;;18.70;42.60;102096.38;5016989;28;97323;-84
2021/09/30 09:07:58;;;;;;;;;;;;;;;18.94;42.41;102098.78;5017340;28;96245;-83
2021/09/30 09:10:30;;;;;;;;;;;;;;;18.73;42.53;102099.81;5020681;28;99811;-86
2021/09/30 09:13:05;;;;;;;;;;;;;;;18.39;43.22;102101.38;5018478;28;99210;-81
2021/09/30 09:15:39;;;;;;;;;;;;;;;18.20;43.38;102101.38;5020449;28;97146;-82
2021/09/30 09:18:23;;;;;;;;;;;;;;;18.42;42.80;102103.06;5021397;28;96872;-82
2021/09/30 09:21:01;;;;;;;;;;;;;;;17.98;43.64;102110.44;5021437;28;99664;-82
2021/09/30 09:23:27;;;;;;;;;;;;;;;17.91;43.94;102113.41;5013457;28;99070;-85
2021/09/30 09:26:05;;;;;;;;;;;;;;;17.83;44.30;102118.22;5019169;28;96155;-83
2021/09/30 09:28:32;;;;;;;;;;;;;;;17.74;44.65;102113.25;5016226;28;96021;-81
2021/09/30 09:30:59;;;;;;;;;;;;;;;17.58;45.02;102111.28;5017027;28;98195;-83
2021/09/30 09:33:28;;;;;;;;;;;;;;;17.74;44.85;102117.72;5018848;28;98106;-84
2021/09/30 09:36:06;;;;;;;;;;;;;;;17.68;44.91;102123.34;5009428;28;96554;-83
2021/09/30 09:38:44;;;;;;;;;;;;;;;17.70;44.98;102125.03;5018991;28;95957;-83
2021/09/30 09:41:14;;;;;;;;;;;;;;;17.55;45.35;102117.63;5019640;28;97550;-82
2021/09/30 09:43:43;;;;;;;;;;;;;;;17.36;46.17;102130.03;5020282;28;98046;-85
2021/09/30 09:49:01;;;;;;;;;;;;;;;18.31;43.76;102123.13;5012688;28;96871;-86
2021/09/30 09:54:22;;;;;;;;;;;;;;;18.96;42.24;102121.03;5014155;28;99446;-85
2021/09/30 09:56:52;;;;;;;;;;;;;;;19.05;42.14;102126.78;5021793;28;96112;-80
2021/09/30 09:59:28;;;;;;;;;;;;;;;18.65;42.96;102135.84;4980753;28;96912;-86
2021/09/30 10:01:54;;;;;;;;;;;;;;;18.69;42.81;102139.28;4963647;28;99460;-86
2021/09/30 10:04:22;;;;;;;;;;;;;;;19.15;41.56;102132.56;4961801;28;98106;-86
2021/09/30 10:07:04;;;;;;;;;;;;;;;19.61;41.08;102130.28;4967941;28;96758;-85
2021/09/30 10:12:16;;;;;;;;;;;;;;;19.64;40.46;102130.97;4968722;28;100205;-85
2021/09/30 10:14:42;;;;;;;;;;;;;;;19.85;40.20;102120.94;4971356;28;99323;-85
2021/09/30 10:17:09;;;;;;;;;;;;;;;19.13;41.10;102136.25;4970828;28;96706;-86
2021/09/30 10:22:19;;;;;;;;;;;;;;;20.02;39.85;102128.97;4967965;28;98571;-94
2021/09/30 10:24:49;;;;;;;;;;;;;;;19.53;40.09;102135.16;4972977;28;97814;-84
2021/09/30 10:27:20;;;;;;;;;;;;;;;19.76;40.01;102138.38;4969417;28;96710;-84
2021/09/30 10:29:47;;;;;;;;;;;;;;;19.56;39.79;102130.50;4971944;28;96730;-85
2021/09/30 10:32:16;;;;;;;;;;;;;;;20.14;39.41;102132.84;4964143;28;97969;-85
2021/09/30 10:34:44;;;;;;;;;;;;;;;20.32;38.99;102136.34;4969595;28;99316;-85
2021/09/30 10:37:17;;;;;;;;;;;;;;;20.31;39.05;102130.09;4968585;28;96706;-86
2021/09/30 10:39:48;;;;;;;;;;;;;;;21.01;38.12;102137.78;4968082;28;96931;-85
2021/09/30 10:42:42;;;;;;;;;;;;;;;20.77;37.56;102149.06;4971476;28;99165;-84
2021/09/30 10:45:11;;;;;;;;;;;;;;;20.74;38.17;102142.06;4973691;28;98301;-85
2021/09/30 10:47:44;;;;;;;;;;;;;;;20.76;38.15;102134.78;4978598;28;96625;-84
2021/09/30 10:50:21;;;;;;;;;;;;;;;20.58;38.07;102143.88;4978909;28;96723;-85
2021/09/30 10:52:52;;;;;;;;;;;;;;;20.93;37.51;102140.09;4970672;28;97884;-84
2021/09/30 10:55:33;;;;;;;;;;;;;;;20.90;37.62;102134.88;4958900;28;99135;-85
2021/09/30 10:58:20;;;;;;;;;;;;;;;21.11;37.65;102134.59;4985714;28;96675;-86
2021/09/30 11:00:48;;;;;;;;;;;;;;;21.66;36.81;102133.09;5002659;28;96852;-85
2021/09/30 11:06:17;;;;;;;;;;;;;;;20.85;36.20;102134.28;5016821;28;99348;-87
2021/09/30 11:09:00;;;;;;;;;;;;;;;21.17;35.76;102136.97;5010253;28;96581;-87
2021/09/30 11:11:27;;;;;;;;;;;;;;;20.56;37.15;102137.69;5000099;28;97029;-87
2021/09/30 11:14:15;;;;;;;;;;;;;;;19.94;38.22;102128.53;5010096;28;98063;-83
2021/09/30 11:16:59;;;;;;;;;;;;;;;20.53;37.40;102137.88;5006771;28;100380;-86
2021/09/30 11:19:30;;;;;;;;;;;;;;;20.74;37.09;102130.47;5011392;28;96697;-88
2021/09/30 11:22:01;;;;;;;;;;;;;;;20.83;37.24;102129.91;5009671;28;96489;-87
2021/09/30 11:24:38;;;;;;;;;;;;;;;20.71;37.24;102142.22;5012751;28;98296;-87
2021/09/30 11:27:06;;;;;;;;;;;;;;;21.07;36.61;102131.19;5015003;28;99330;-86
2021/09/30 11:29:33;;;;;;;;;;;;;;;20.88;37.20;102130.53;5019339;28;96300;-84
2021/09/30 11:32:30;;;;;;;;;;;;;;;20.64;37.44;102141.69;5012877;28;96348;-85
2021/09/30 11:35:02;;;;;;;;;;;;;;;20.16;38.15;102138.97;5007074;28;98890;-86
2021/09/30 11:37:40;;;;;;;;;;;;;;;20.40;38.27;102136.81;4998392;28;97276;-86
2021/09/30 11:40:10;;;;;;;;;;;;;;;20.77;37.64;102138.31;5002348;28;96800;-86
2021/09/30 11:42:38;;;;;;;;;;;;;;;20.56;38.24;102137.69;4996484;28;96823;-85
2021/09/30 11:45:06;;;;;;;;;;;;;;;20.78;37.77;102140.94;4996117;28;100595;-86
2021/09/30 11:47:34;;;;;;;;;;;;;;;20.71;37.99;102144.03;5000859;28;100387;-86
2021/09/30 11:50:05;;;;;;;;;;;;;;;20.01;38.63;102142.47;4997562;28;96715;-86
2021/09/30 11:52:33;;;;;;;;;;;;;;;20.05;39.41;102141.34;5009490;28;96774;-86
2021/09/30 11:55:12;;;;;;;;;;;;;;;20.20;38.73;102145.91;5013391;28;97992;-85
2021/09/30 12:00:26;;;;;;;;;;;;;;;19.87;39.50;102143.22;5013400;28;96783;-85
2021/09/30 12:05:40;;;;;;;;;;;;;;;19.81;39.78;102154.25;5009070;28;99895;-86
2021/09/30 12:08:09;;;;;;;;;;;;;;;19.45;40.36;102144.41;5007336;28;98004;-86
2021/09/30 12:10:39;;;;;;;;;;;;;;;19.42;40.52;102147.28;5007871;28;97282;-88
2021/09/30 12:13:13;;;;;;;;;;;;;;;19.56;40.50;102143.06;5009778;28;97008;-88
2021/09/30 12:15:40;;;;;;;;;;;;;;;19.61;40.56;102143.69;5013503;28;96886;-86
2021/09/30 12:18:15;;;;;;;;;;;;;;;19.49;40.63;102137.97;5014104;28;99995;-84
2021/09/30 12:20:53;;;;;;;;;;;;;;;20.04;40.10;102147.66;5022189;28;96994;-84
2021/09/30 12:23:21;;;;;;;;;;;;;;;20.33;39.78;102140.78;5009012;28;96900;-86
2021/09/30 12:25:48;;;;;;;;;;;;;;;20.43;39.39;102142.88;5007768;28;99208;-86
2021/09/30 12:28:19;;;;;;;;;;;;;;;20.82;38.52;102141.63;4998080;28;99649;-84
2021/09/30 12:30:47;;;;;;;;;;;;;;;20.82;38.00;102142.47;5010438;28;96879;-87
2021/09/30 12:33:14;;;;;;;;;;;;;;;21.08;38.12;102144.56;5006053;28;96750;-86
2021/09/30 12:35:42;;;;;;;;;;;;;;;21.29;37.26;102152.38;5012526;28;99618;-85
2021/09/30 12:38:14;;;;;;;;;;;;;;;21.94;35.75;102137.69;5008518;28;98193;-85
2021/09/30 12:40:42;;;;;;;;;;;;;;;22.30;35.76;102134.59;5016980;28;96708;-84
2021/09/30 12:43:10;;;;;;;;;;;;;;;22.42;35.25;102128.41;5020094;28;96748;-86
2021/09/30 12:45:38;;;;;;;;;;;;;;;22.61;33.76;102126.28;5019642;28;98122;-85
2021/09/30 12:48:07;;;;;;;;;;;;;;;22.82;34.09;102128.59;5033463;28;97410;-84
2021/09/30 12:50:39;;;;;;;;;;;;;;;22.74;33.10;102128.22;5013237;28;96753;-86
2021/09/30 12:55:48;;;;;;;;;;;;;;;22.69;33.19;102122.22;5001824;28;99182;-84
2021/09/30 12:58:29;;;;;;;;;;;;;;;21.97;34.20;102117.84;5002932;28;100041;-84
2021/09/30 13:03:38;;;;;;;;;;;;;;;22.62;33.31;102116.38;5007298;28;96930;-85
2021/09/30 13:06:06;;;;;;;;;;;;;;;22.93;31.55;102121.53;5002553;28;100321;-85
2021/09/30 13:08:40;;;;;;;;;;;;;;;23.19;31.56;102113.53;4999887;28;98017;-85
2021/09/30 13:11:24;;;;;;;;;;;;;;;24.01;29.80;102116.88;5009407;28;97389;-84
2021/09/30 13:14:09;;;;;;;;;;;;;;;23.68;29.44;102111.13;5002939;28;96658;-85
2021/09/30 13:16:35;;;;;;;;;;;;;;;23.58;30.31;102108.16;5014520;28;98438;-84
2021/09/30 13:19:03;;;;;;;;;;;;;;;23.71;30.16;102108.19;5690337;22;100432;-84
2021/09/30 13:21:30;;;;;;;;;;;;;;;23.87;29.81;102108.88;4997947;28;96419;-85
2021/09/30 13:23:56;;;;;;;;;;;;;;;24.01;29.08;102106.06;4990226;28;96879;-84
2021/09/30 13:26:26;;;;;;;;;;;;;;;23.62;29.85;102112.41;4985241;28;98293;-85
2021/09/30 13:28:52;;;;;;;;;;;;;;;24.18;29.64;102113.81;4984585;28;101232;-85
2021/09/30 13:31:19;;;;;;;;;;;;;;;24.98;28.92;102115.22;4983090;28;96739;-84
2021/09/30 13:33:45;;;;;;;;;;;;;;;23.95;29.38;102106.50;4982978;28;96857;-84
2021/09/30 13:36:12;;;;;;;;;;;;;;;24.59;29.56;102112.72;4987033;28;96926;-85
2021/09/30 13:38:38;;;;;;;;;;;;;;;24.96;28.44;102102.78;4984475;28;99202;-85
2021/09/30 13:41:04;;;;;;;;;;;;;;;24.29;29.17;102114.91;4980149;28;97341;-85
2021/09/30 13:43:32;;;;;;;;;;;;;;;22.99;30.65;102113.03;4980830;28;96883;-85
2021/09/30 13:46:00;;;;;;;;;;;;;;;23.50;30.26;102113.22;4982901;28;98009;-85
2021/09/30 13:48:28;;;;;;;;;;;;;;;23.29;30.54;102107.44;4979700;28;99797;-83
2021/09/30 13:50:54;;;;;;;;;;;;;;;23.14;30.53;102116.56;4976854;28;96776;-85
2021/09/30 13:56:03;;;;;;;;;;;;;;;23.94;29.27;102112.88;4984175;28;97000;-85
2021/09/30 13:58:32;;;;;;;;;;;;;;;24.26;28.87;102107.06;4979748;28;99706;-86
2021/09/30 14:01:01;;;;;;;;;;;;;;;24.08;29.69;102107.38;4979996;28;96795;-85
2021/09/30 14:03:27;;;;;;;;;;;;;;;23.39;29.45;102100.44;4974829;28;96787;-84
2021/09/30 14:05:54;;;;;;;;;;;;;;;23.31;30.64;102096.53;4974508;28;98248;-85
2021/09/30 14:08:20;;;;;;;;;;;;;;;22.61;31.63;102093.94;4973856;28;99281;-85
2021/09/30 14:10:48;;;;;;;;;;;;;;;22.58;31.36;102102.22;4975338;28;97246;-83
2021/09/30 14:13:16;;;;;;;;;;;;;;;22.13;31.05;102099.75;4979646;28;97056;-84
2021/09/30 14:15:43;;;;;;;;;;;;;;;21.30;31.74;102093.16;4977275;28;98875;-83
2021/09/30 14:18:11;;;;;;;;;;;;;;;21.66;31.52;102103.50;4977850;28;100798;-85
2021/09/30 14:20:40;;;;;;;;;;;;;;;21.65;31.52;102103.63;4979719;28;97128;-86
2021/09/30 14:23:16;;;;;;;;;;;;;;;21.13;32.61;102105.81;4976880;28;96906;-85
2021/09/30 14:25:43;;;;;;;;;;;;;;;21.33;32.12;102094.78;4976271;28;98154;-84
2021/09/30 14:28:10;;;;;;;;;;;;;;;21.70;32.13;102101.50;4978805;28;98843;-84
2021/09/30 14:30:36;;;;;;;;;;;;;;;21.75;32.33;102102.09;4979329;28;98208;-85
2021/09/30 14:33:03;;;;;;;;;;;;;;;21.46;32.20;102096.63;4986616;28;96781;-84
2021/09/30 14:35:31;;;;;;;;;;;;;;;21.23;32.38;102110.59;4986731;28;101769;-85
2021/09/30 14:37:59;;;;;;;;;;;;;;;21.30;32.58;102097.66;4995828;28;97800;-85
2021/09/30 14:40:28;;;;;;;;;;;;;;;20.89;33.08;102095.50;4993154;28;96777;-90
2021/09/30 14:42:56;;;;;;;;;;;;;;;20.83;33.98;102098.56;4995473;28;96739;-89
2021/09/30 14:45:22;;;;;;;;;;;;;;;20.90;34.02;102093.69;4980318;28;101337;-85
2021/09/30 14:47:48;;;;;;;;;;;;;;;20.93;33.73;102096.22;4982568;28;96890;-86
2021/09/30 14:50:15;;;;;;;;;;;;;;;21.15;33.89;102098.50;4984961;28;96856;-84
2021/09/30 14:52:43;;;;;;;;;;;;;;;20.61;34.38;102087.31;4978817;28;97402;-85
2021/09/30 14:55:09;;;;;;;;;;;;;;;21.19;33.85;102092.06;4988003;28;100734;-83
2021/09/30 14:57:39;;;;;;;;;;;;;;;21.23;33.98;102093.59;4982215;28;98073;-85
2021/09/30 15:00:11;;;;;;;;;;;;;;;20.99;33.90;102096.75;4991705;28;96738;-84
2021/09/30 15:02:37;;;;;;;;;;;;;;;20.96;33.97;102091.53;4981912;28;96764;-86
2021/09/30 15:05:18;;;;;;;;;;;;;;;20.85;33.85;102091.28;4987752;28;99520;-85
2021/09/30 15:07:46;;;;;;;;;;;;;;;20.87;34.33;102100.09;4993833;28;100244;-84
2021/09/30 15:10:13;;;;;;;;;;;;;;;20.91;34.08;102095.44;4998007;28;96357;-86
2021/09/30 15:12:40;;;;;;;;;;;;;;;20.97;33.62;102104.00;4995066;28;96714;-84
2021/09/30 15:15:08;;;;;;;;;;;;;;;20.56;34.39;102087.53;4993254;28;100628;-85
2021/09/30 15:23:19;;;;;;;;;;;;;;;20.43;35.15;102102.59;4998273;28;96418;-84
2021/09/30 15:25:46;;;;;;;;;;;;;;;20.44;34.93;102092.75;4997787;28;99125;-87
2021/09/30 15:28:21;;;;;;;;;;;;;;;20.40;35.34;102107.28;4998155;28;98074;-84
2021/09/30 15:30:55;;;;;;;;;;;;;;;20.62;35.20;102099.75;4998095;28;96311;-88
2021/09/30 15:33:21;;;;;;;;;;;;;;;20.27;35.19;102107.06;4992818;28;97763;-84
2021/09/30 15:35:49;;;;;;;;;;;;;;;20.23;35.14;102109.03;4988470;28;99095;-84
2021/09/30 15:38:23;;;;;;;;;;;;;;;20.17;35.64;102109.38;4992649;28;97504;-87
2021/09/30 15:40:51;;;;;;;;;;;;;;;20.42;34.58;102105.38;4982252;28;96288;-83
2021/09/30 15:43:17;;;;;;;;;;;;;;;20.29;35.22;102111.38;4983574;28;96082;-84
2021/09/30 15:45:45;;;;;;;;;;;;;;;20.19;35.23;102104.78;4996909;28;100258;-83
2021/09/30 15:48:13;;;;;;;;;;;;;;;20.09;35.56;102105.34;5002767;28;97551;-87
2021/09/30 15:50:42;;;;;;;;;;;;;;;20.23;35.33;102103.66;5000140;28;96168;-84
2021/09/30 15:53:11;;;;;;;;;;;;;;;20.09;35.52;102102.66;4999442;28;97036;-83
2021/09/30 15:55:39;;;;;;;;;;;;;;;19.99;35.78;102105.00;4982754;28;100094;-88
2021/09/30 15:58:06;;;;;;;;;;;;;;;19.80;36.57;102104.25;4983316;28;98985;-87
2021/09/30 16:00:33;;;;;;;;;;;;;;;19.67;36.92;102105.81;4989253;28;96680;-87
2021/09/30 16:03:05;;;;;;;;;;;;;;;19.88;36.69;102110.06;4985139;28;96566;-87
2021/09/30 16:05:33;;;;;;;;;;;;;;;19.63;36.54;102106.91;4993640;28;99482;-88